Calvin, Kentucky
Current Conditions -  °F | °C
As of 1:15 PM on Sunday 23 Nov 2014 (Local Time) from K1A6 Reporting Station
Light Rain Light Rain  
Wind Chill: 56°   Ceiling: 7000
Heat Index: 56°   Visibility: 7mi
Dew Point: 50°   Wind: 5mph
Humidity: 80%   Direction: 100°E
Pressure: 29.85"   Gusts: NA
Location:  36.72°N, 83.62°W
Report Text: K1A6 231815Z AUTO 10004KT 7SM -RA BKN070 OVC095 14/10 A2985 RMK AO2 P0001 T01350102
Loading
Personal Weather Stations






























Interactive Weather Map New forecast layout! Learn more

10-Day Weather Forecast

Advertisements
Track Severe Weather on mobile